Terminal Aerodrome Forecast
Issued by NWS

Home | Current Version | Previous Version | Text Only | Print | Product List | Glossary On
Versions: 1 2 3 4 5 6 7 8 9 10 11 12 13 14 15
543
FTUS45 KPSR 050225 AAA
TAFBLH
TAF AMD
KBLH 050225Z 0502/0524 19015KT P6SM SKC
     FM050400 22008KT P6SM SKC
     FM051800 18017G25KT P6SM SKC
      TEMPO 0521/0524 22020G28KT=

USA.gov is the U.S. government's official web portal to all federal, state and local government web resources and services.